Jayton, Texas
Current Conditions -  °F | °C
As of 5:55 PM on Sunday 23 Nov 2014 (Local Time) from KSNK Reporting Station
Broken Clouds Broken Clouds  
Wind Chill: 13°   Ceiling: 12000
Heat Index: 13°   Visibility: 10mi
Dew Point:   Wind: 28mph
Humidity: 44%   Direction: 340°NNW
Pressure: 29.76"   Gusts: 36mph
Location:  33.25°N, 100.57°W
Report Text: KSNK 232355Z AUTO 34024G31KT 10SM BKN120 13/01 A2976 RMK AO2 T01260006
Loading
Personal Weather Stations






























Interactive Weather Map New forecast layout! Learn more

10-Day Weather Forecast

Advertisements
Track Severe Weather on mobile